<?xml version="1.0" encoding="utf-8"?>
<gpx xmlns:xsi="http://www.w3.org/2001/XMLSchema-instance" xmlns:xsd="http://www.w3.org/2001/XMLSchema" version="1.1" creator="Shapelink.com" xmlns="http://www.topografix.com/GPX/1/1" xmlns:gpxtpx="http://www.garmin.com/xmlschemas/TrackPointExtension/v1">
  <metadata>
    <name>Gåing 4.58 km, 2012-02-17</name>
    <desc></desc>
    <author><name>Mikael Blom</name></author> 
    <time>2012-02-17T15:56:00Z</time>
  </metadata>
  <trk>
    <name>Gåing 4.58 km, 2012-02-17</name>
    <trkseg>
      <trkpt lat="59.9788668" lon="17.7385989">
        <ele>36.6675</ele>
        <time>2012-02-17T15:56:00Z</time>
      </trkpt>
      <trkpt lat="59.9789027" lon="17.7387628">
        <ele>31.8607</ele>
        <time>2012-02-17T15:56:06Z</time>
      </trkpt>
      <trkpt lat="59.9789379" lon="17.738928">
        <ele>35.2255</ele>
        <time>2012-02-17T15:56:12Z</time>
      </trkpt>
      <trkpt lat="59.9789483" lon="17.7389652">
        <ele>35.7061</ele>
        <time>2012-02-17T15:56:14Z</time>
      </trkpt>
      <trkpt lat="59.97898" lon="17.7390534">
        <ele>36.6675</ele>
        <time>2012-02-17T15:56:19Z</time>
      </trkpt>
      <trkpt lat="59.9789543" lon="17.7391984">
        <ele>38.5901</ele>
        <time>2012-02-17T15:56:24Z</time>
      </trkpt>
      <trkpt lat="59.978962" lon="17.7393308">
        <ele>49.1646</ele>
        <time>2012-02-17T15:56:29Z</time>
      </trkpt>
      <trkpt lat="59.9789592" lon="17.7393878">
        <ele>50.126</ele>
        <time>2012-02-17T15:56:33Z</time>
      </trkpt>
      <trkpt lat="59.9789479" lon="17.7393524">
        <ele>50.126</ele>
        <time>2012-02-17T15:56:37Z</time>
      </trkpt>
      <trkpt lat="59.9789049" lon="17.7393399">
        <ele>46.2806</ele>
        <time>2012-02-17T15:56:39Z</time>
      </trkpt>
      <trkpt lat="59.9788649" lon="17.7393621">
        <ele>42.4354</ele>
        <time>2012-02-17T15:56:41Z</time>
      </trkpt>
      <trkpt lat="59.9787831" lon="17.7393334">
        <ele>35.7061</ele>
        <time>2012-02-17T15:56:45Z</time>
      </trkpt>
      <trkpt lat="59.9785577" lon="17.7394574">
        <ele>15.0377</ele>
        <time>2012-02-17T15:56:53Z</time>
      </trkpt>
      <trkpt lat="59.9785174" lon="17.7394686">
        <ele>14.0764</ele>
        <time>2012-02-17T15:56:55Z</time>
      </trkpt>
      <trkpt lat="59.9785003" lon="17.7394413">
        <ele>19.3638</ele>
        <time>2012-02-17T15:57:00Z</time>
      </trkpt>
      <trkpt lat="59.9784751" lon="17.739415">
        <ele>23.209</ele>
        <time>2012-02-17T15:57:04Z</time>
      </trkpt>
      <trkpt lat="59.9784496" lon="17.7393771">
        <ele>28.0155</ele>
        <time>2012-02-17T15:57:07Z</time>
      </trkpt>
      <trkpt lat="59.9784279" lon="17.7393517">
        <ele>30.4188</ele>
        <time>2012-02-17T15:57:09Z</time>
      </trkpt>
      <trkpt lat="59.9783738" lon="17.7393056">
        <ele>32.8223</ele>
        <time>2012-02-17T15:57:13Z</time>
      </trkpt>
      <trkpt lat="59.9782718" lon="17.739263">
        <ele>39.0707</ele>
        <time>2012-02-17T15:57:20Z</time>
      </trkpt>
      <trkpt lat="59.9782083" lon="17.7392539">
        <ele>40.0321</ele>
        <time>2012-02-17T15:57:25Z</time>
      </trkpt>
      <trkpt lat="59.9780788" lon="17.7392771">
        <ele>34.7449</ele>
        <time>2012-02-17T15:57:30Z</time>
      </trkpt>
      <trkpt lat="59.9780545" lon="17.7392857">
        <ele>34.2642</ele>
        <time>2012-02-17T15:57:31Z</time>
      </trkpt>
      <trkpt lat="59.977987" lon="17.7392637">
        <ele>32.3416</ele>
        <time>2012-02-17T15:57:35Z</time>
      </trkpt>
      <trkpt lat="59.9779099" lon="17.7392108">
        <ele>30.8995</ele>
        <time>2012-02-17T15:57:40Z</time>
      </trkpt>
      <trkpt lat="59.977884" lon="17.739157">
        <ele>29.9381</ele>
        <time>2012-02-17T15:57:43Z</time>
      </trkpt>
      <trkpt lat="59.9778598" lon="17.7391492">
        <ele>30.4188</ele>
        <time>2012-02-17T15:57:45Z</time>
      </trkpt>
      <trkpt lat="59.9778247" lon="17.7391316">
        <ele>30.8995</ele>
        <time>2012-02-17T15:57:48Z</time>
      </trkpt>
      <trkpt lat="59.9777255" lon="17.7391366">
        <ele>32.3416</ele>
        <time>2012-02-17T15:57:54Z</time>
      </trkpt>
      <trkpt lat="59.9776601" lon="17.739117">
        <ele>33.3029</ele>
        <time>2012-02-17T15:57:58Z</time>
      </trkpt>
      <trkpt lat="59.9775735" lon="17.73912">
        <ele>32.8223</ele>
        <time>2012-02-17T15:58:03Z</time>
      </trkpt>
      <trkpt lat="59.9775116" lon="17.7391232">
        <ele>30.4188</ele>
        <time>2012-02-17T15:58:07Z</time>
      </trkpt>
      <trkpt lat="59.9774344" lon="17.7391465">
        <ele>27.0543</ele>
        <time>2012-02-17T15:58:12Z</time>
      </trkpt>
      <trkpt lat="59.9774105" lon="17.7391294">
        <ele>27.0543</ele>
        <time>2012-02-17T15:58:17Z</time>
      </trkpt>
      <trkpt lat="59.9773506" lon="17.7391391">
        <ele>27.5349</ele>
        <time>2012-02-17T15:58:21Z</time>
      </trkpt>
      <trkpt lat="59.9773043" lon="17.7391061">
        <ele>27.0543</ele>
        <time>2012-02-17T15:58:24Z</time>
      </trkpt>
      <trkpt lat="59.9772198" lon="17.7392004">
        <ele>25.6123</ele>
        <time>2012-02-17T15:58:30Z</time>
      </trkpt>
      <trkpt lat="59.9771427" lon="17.7392801">
        <ele>24.651</ele>
        <time>2012-02-17T15:58:36Z</time>
      </trkpt>
      <trkpt lat="59.9771208" lon="17.7392947">
        <ele>25.1317</ele>
        <time>2012-02-17T15:58:38Z</time>
      </trkpt>
      <trkpt lat="59.9770893" lon="17.7393076">
        <ele>26.5736</ele>
        <time>2012-02-17T15:58:41Z</time>
      </trkpt>
      <trkpt lat="59.9769759" lon="17.7393527">
        <ele>27.5349</ele>
        <time>2012-02-17T15:58:49Z</time>
      </trkpt>
      <trkpt lat="59.9769317" lon="17.7393724">
        <ele>28.0155</ele>
        <time>2012-02-17T15:58:52Z</time>
      </trkpt>
      <trkpt lat="59.9768775" lon="17.7394072">
        <ele>28.0155</ele>
        <time>2012-02-17T15:58:56Z</time>
      </trkpt>
      <trkpt lat="59.9767517" lon="17.7394723">
        <ele>29.4575</ele>
        <time>2012-02-17T15:59:02Z</time>
      </trkpt>
      <trkpt lat="59.9766657" lon="17.7395241">
        <ele>27.5349</ele>
        <time>2012-02-17T15:59:07Z</time>
      </trkpt>
      <trkpt lat="59.9766014" lon="17.7395528">
        <ele>28.4962</ele>
        <time>2012-02-17T15:59:13Z</time>
      </trkpt>
      <trkpt lat="59.9765857" lon="17.7395575">
        <ele>28.0155</ele>
        <time>2012-02-17T15:59:14Z</time>
      </trkpt>
      <trkpt lat="59.9765214" lon="17.739658">
        <ele>26.5736</ele>
        <time>2012-02-17T15:59:20Z</time>
      </trkpt>
      <trkpt lat="59.9764367" lon="17.7396796">
        <ele>25.6123</ele>
        <time>2012-02-17T15:59:26Z</time>
      </trkpt>
      <trkpt lat="59.9763511" lon="17.7397644">
        <ele>27.5349</ele>
        <time>2012-02-17T15:59:33Z</time>
      </trkpt>
      <trkpt lat="59.9762459" lon="17.739763">
        <ele>28.4962</ele>
        <time>2012-02-17T15:59:39Z</time>
      </trkpt>
      <trkpt lat="59.9761502" lon="17.7397009">
        <ele>28.0155</ele>
        <time>2012-02-17T15:59:45Z</time>
      </trkpt>
      <trkpt lat="59.976086" lon="17.7395978">
        <ele>27.0543</ele>
        <time>2012-02-17T15:59:50Z</time>
      </trkpt>
      <trkpt lat="59.9760781" lon="17.7395781">
        <ele>27.0543</ele>
        <time>2012-02-17T15:59:51Z</time>
      </trkpt>
      <trkpt lat="59.9760124" lon="17.7394516">
        <ele>27.0543</ele>
        <time>2012-02-17T15:59:57Z</time>
      </trkpt>
      <trkpt lat="59.9759352" lon="17.739301">
        <ele>25.1317</ele>
        <time>2012-02-17T16:00:04Z</time>
      </trkpt>
      <trkpt lat="59.9758578" lon="17.739158">
        <ele>25.6123</ele>
        <time>2012-02-17T16:00:11Z</time>
      </trkpt>
      <trkpt lat="59.9757659" lon="17.7389939">
        <ele>25.1317</ele>
        <time>2012-02-17T16:00:19Z</time>
      </trkpt>
      <trkpt lat="59.9756999" lon="17.7388623">
        <ele>25.1317</ele>
        <time>2012-02-17T16:00:25Z</time>
      </trkpt>
      <trkpt lat="59.975682" lon="17.7388145">
        <ele>25.6123</ele>
        <time>2012-02-17T16:00:27Z</time>
      </trkpt>
      <trkpt lat="59.97556" lon="17.738598">
        <ele>25.6123</ele>
        <time>2012-02-17T16:00:37Z</time>
      </trkpt>
      <trkpt lat="59.9755002" lon="17.7385245">
        <ele>23.6896</ele>
        <time>2012-02-17T16:00:41Z</time>
      </trkpt>
      <trkpt lat="59.9754001" lon="17.7383383">
        <ele>24.1703</ele>
        <time>2012-02-17T16:00:50Z</time>
      </trkpt>
      <trkpt lat="59.9752974" lon="17.7381254">
        <ele>26.0929</ele>
        <time>2012-02-17T16:01:00Z</time>
      </trkpt>
      <trkpt lat="59.9751961" lon="17.7379765">
        <ele>25.1317</ele>
        <time>2012-02-17T16:01:08Z</time>
      </trkpt>
      <trkpt lat="59.9751029" lon="17.737791">
        <ele>24.651</ele>
        <time>2012-02-17T16:01:17Z</time>
      </trkpt>
      <trkpt lat="59.9750028" lon="17.7376299">
        <ele>23.209</ele>
        <time>2012-02-17T16:01:26Z</time>
      </trkpt>
      <trkpt lat="59.9749527" lon="17.7375248">
        <ele>22.7283</ele>
        <time>2012-02-17T16:01:31Z</time>
      </trkpt>
      <trkpt lat="59.9748847" lon="17.7374083">
        <ele>21.767</ele>
        <time>2012-02-17T16:01:37Z</time>
      </trkpt>
      <trkpt lat="59.9748516" lon="17.7373523">
        <ele>21.2864</ele>
        <time>2012-02-17T16:01:40Z</time>
      </trkpt>
      <trkpt lat="59.9748161" lon="17.737273">
        <ele>20.325</ele>
        <time>2012-02-17T16:01:44Z</time>
      </trkpt>
      <trkpt lat="59.9747738" lon="17.737137">
        <ele>19.3638</ele>
        <time>2012-02-17T16:01:50Z</time>
      </trkpt>
      <trkpt lat="59.974737" lon="17.7370481">
        <ele>18.4023</ele>
        <time>2012-02-17T16:01:55Z</time>
      </trkpt>
      <trkpt lat="59.9747141" lon="17.7368529">
        <ele>16.9604</ele>
        <time>2012-02-17T16:02:02Z</time>
      </trkpt>
      <trkpt lat="59.9747076" lon="17.7368259">
        <ele>16.9604</ele>
        <time>2012-02-17T16:02:03Z</time>
      </trkpt>
      <trkpt lat="59.9746708" lon="17.736735">
        <ele>16.4797</ele>
        <time>2012-02-17T16:02:07Z</time>
      </trkpt>
      <trkpt lat="59.9746258" lon="17.7365881">
        <ele>15.999</ele>
        <time>2012-02-17T16:02:13Z</time>
      </trkpt>
      <trkpt lat="59.974606" lon="17.7365439">
        <ele>15.999</ele>
        <time>2012-02-17T16:02:15Z</time>
      </trkpt>
      <trkpt lat="59.9745787" lon="17.7364717">
        <ele>15.999</ele>
        <time>2012-02-17T16:02:18Z</time>
      </trkpt>
      <trkpt lat="59.9745542" lon="17.7363244">
        <ele>15.999</ele>
        <time>2012-02-17T16:02:23Z</time>
      </trkpt>
      <trkpt lat="59.9745167" lon="17.7361064">
        <ele>15.5184</ele>
        <time>2012-02-17T16:02:30Z</time>
      </trkpt>
      <trkpt lat="59.9744921" lon="17.7359738">
        <ele>15.0377</ele>
        <time>2012-02-17T16:02:35Z</time>
      </trkpt>
      <trkpt lat="59.9744299" lon="17.735763">
        <ele>14.557</ele>
        <time>2012-02-17T16:02:42Z</time>
      </trkpt>
      <trkpt lat="59.9743739" lon="17.7355111">
        <ele>15.0377</ele>
        <time>2012-02-17T16:02:51Z</time>
      </trkpt>
      <trkpt lat="59.974334" lon="17.7352672">
        <ele>15.5184</ele>
        <time>2012-02-17T16:03:00Z</time>
      </trkpt>
      <trkpt lat="59.9743014" lon="17.7349679">
        <ele>15.5184</ele>
        <time>2012-02-17T16:03:10Z</time>
      </trkpt>
      <trkpt lat="59.9742937" lon="17.7347112">
        <ele>15.5184</ele>
        <time>2012-02-17T16:03:18Z</time>
      </trkpt>
      <trkpt lat="59.9742843" lon="17.7344243">
        <ele>15.5184</ele>
        <time>2012-02-17T16:03:27Z</time>
      </trkpt>
      <trkpt lat="59.9742911" lon="17.7340431">
        <ele>15.999</ele>
        <time>2012-02-17T16:03:39Z</time>
      </trkpt>
      <trkpt lat="59.9743015" lon="17.7336789">
        <ele>17.4412</ele>
        <time>2012-02-17T16:03:51Z</time>
      </trkpt>
      <trkpt lat="59.974314" lon="17.7333999">
        <ele>18.4023</ele>
        <time>2012-02-17T16:04:00Z</time>
      </trkpt>
      <trkpt lat="59.9743211" lon="17.7331869">
        <ele>18.8831</ele>
        <time>2012-02-17T16:04:07Z</time>
      </trkpt>
      <trkpt lat="59.9743256" lon="17.7330083">
        <ele>18.8831</ele>
        <time>2012-02-17T16:04:13Z</time>
      </trkpt>
      <trkpt lat="59.9743304" lon="17.7328698">
        <ele>19.3638</ele>
        <time>2012-02-17T16:04:18Z</time>
      </trkpt>
      <trkpt lat="59.9743263" lon="17.7328264">
        <ele>18.8831</ele>
        <time>2012-02-17T16:04:19Z</time>
      </trkpt>
      <trkpt lat="59.9743304" lon="17.7324606">
        <ele>19.8444</ele>
        <time>2012-02-17T16:04:31Z</time>
      </trkpt>
      <trkpt lat="59.974329" lon="17.7321833">
        <ele>19.3638</ele>
        <time>2012-02-17T16:04:40Z</time>
      </trkpt>
      <trkpt lat="59.9743241" lon="17.7319925">
        <ele>19.3638</ele>
        <time>2012-02-17T16:04:46Z</time>
      </trkpt>
      <trkpt lat="59.9743148" lon="17.7317163">
        <ele>19.8444</ele>
        <time>2012-02-17T16:04:55Z</time>
      </trkpt>
      <trkpt lat="59.9743056" lon="17.7314705">
        <ele>20.325</ele>
        <time>2012-02-17T16:05:03Z</time>
      </trkpt>
      <trkpt lat="59.9743166" lon="17.7312174">
        <ele>21.767</ele>
        <time>2012-02-17T16:05:11Z</time>
      </trkpt>
      <trkpt lat="59.9743346" lon="17.730962">
        <ele>22.2476</ele>
        <time>2012-02-17T16:05:19Z</time>
      </trkpt>
      <trkpt lat="59.9743552" lon="17.7307118">
        <ele>25.6123</ele>
        <time>2012-02-17T16:05:26Z</time>
      </trkpt>
      <trkpt lat="59.9743761" lon="17.73045">
        <ele>27.0543</ele>
        <time>2012-02-17T16:05:34Z</time>
      </trkpt>
      <trkpt lat="59.9743905" lon="17.7301471">
        <ele>28.9769</ele>
        <time>2012-02-17T16:05:43Z</time>
      </trkpt>
      <trkpt lat="59.9743961" lon="17.7299391">
        <ele>28.9769</ele>
        <time>2012-02-17T16:05:50Z</time>
      </trkpt>
      <trkpt lat="59.9744299" lon="17.7297508">
        <ele>29.4575</ele>
        <time>2012-02-17T16:05:56Z</time>
      </trkpt>
      <trkpt lat="59.9744511" lon="17.7294941">
        <ele>28.9769</ele>
        <time>2012-02-17T16:06:04Z</time>
      </trkpt>
      <trkpt lat="59.9744599" lon="17.7292654">
        <ele>28.4962</ele>
        <time>2012-02-17T16:06:11Z</time>
      </trkpt>
      <trkpt lat="59.9744589" lon="17.7292337">
        <ele>28.4962</ele>
        <time>2012-02-17T16:06:12Z</time>
      </trkpt>
      <trkpt lat="59.9744641" lon="17.7291395">
        <ele>28.4962</ele>
        <time>2012-02-17T16:06:15Z</time>
      </trkpt>
      <trkpt lat="59.9744599" lon="17.7290189">
        <ele>28.0155</ele>
        <time>2012-02-17T16:06:19Z</time>
      </trkpt>
      <trkpt lat="59.9744543" lon="17.7287974">
        <ele>27.0543</ele>
        <time>2012-02-17T16:06:27Z</time>
      </trkpt>
      <trkpt lat="59.9744437" lon="17.7286086">
        <ele>25.1317</ele>
        <time>2012-02-17T16:06:34Z</time>
      </trkpt>
      <trkpt lat="59.9744344" lon="17.7284045">
        <ele>24.1703</ele>
        <time>2012-02-17T16:06:41Z</time>
      </trkpt>
      <trkpt lat="59.9744377" lon="17.728343">
        <ele>24.1703</ele>
        <time>2012-02-17T16:06:43Z</time>
      </trkpt>
      <trkpt lat="59.9744346" lon="17.7282114">
        <ele>23.6896</ele>
        <time>2012-02-17T16:06:47Z</time>
      </trkpt>
      <trkpt lat="59.9744292" lon="17.7280233">
        <ele>23.209</ele>
        <time>2012-02-17T16:06:53Z</time>
      </trkpt>
      <trkpt lat="59.974447" lon="17.7278876">
        <ele>23.209</ele>
        <time>2012-02-17T16:06:58Z</time>
      </trkpt>
      <trkpt lat="59.9744504" lon="17.7278595">
        <ele>23.209</ele>
        <time>2012-02-17T16:06:59Z</time>
      </trkpt>
      <trkpt lat="59.9745079" lon="17.727728">
        <ele>23.209</ele>
        <time>2012-02-17T16:07:05Z</time>
      </trkpt>
      <trkpt lat="59.9745551" lon="17.72764">
        <ele>22.7283</ele>
        <time>2012-02-17T16:07:10Z</time>
      </trkpt>
      <trkpt lat="59.9745775" lon="17.7276033">
        <ele>22.2476</ele>
        <time>2012-02-17T16:07:12Z</time>
      </trkpt>
      <trkpt lat="59.9746462" lon="17.727496">
        <ele>21.2864</ele>
        <time>2012-02-17T16:07:18Z</time>
      </trkpt>
      <trkpt lat="59.9747099" lon="17.7274309">
        <ele>18.8831</ele>
        <time>2012-02-17T16:07:24Z</time>
      </trkpt>
      <trkpt lat="59.9747933" lon="17.7273141">
        <ele>18.4023</ele>
        <time>2012-02-17T16:07:31Z</time>
      </trkpt>
      <trkpt lat="59.9748267" lon="17.7272867">
        <ele>19.3638</ele>
        <time>2012-02-17T16:07:34Z</time>
      </trkpt>
      <trkpt lat="59.9749276" lon="17.7271852">
        <ele>17.9218</ele>
        <time>2012-02-17T16:07:41Z</time>
      </trkpt>
      <trkpt lat="59.9750133" lon="17.7271149">
        <ele>16.9604</ele>
        <time>2012-02-17T16:07:47Z</time>
      </trkpt>
      <trkpt lat="59.9750702" lon="17.72706">
        <ele>16.4797</ele>
        <time>2012-02-17T16:07:52Z</time>
      </trkpt>
      <trkpt lat="59.9751142" lon="17.7270289">
        <ele>17.4412</ele>
        <time>2012-02-17T16:07:54Z</time>
      </trkpt>
      <trkpt lat="59.9751602" lon="17.726992">
        <ele>18.4023</ele>
        <time>2012-02-17T16:07:56Z</time>
      </trkpt>
      <trkpt lat="59.9752509" lon="17.7269179">
        <ele>20.325</ele>
        <time>2012-02-17T16:08:00Z</time>
      </trkpt>
      <trkpt lat="59.9753735" lon="17.726835">
        <ele>22.2476</ele>
        <time>2012-02-17T16:08:05Z</time>
      </trkpt>
      <trkpt lat="59.9755154" lon="17.726701">
        <ele>25.1317</ele>
        <time>2012-02-17T16:08:11Z</time>
      </trkpt>
      <trkpt lat="59.9756486" lon="17.7265491">
        <ele>27.5349</ele>
        <time>2012-02-17T16:08:17Z</time>
      </trkpt>
      <trkpt lat="59.9757545" lon="17.7264454">
        <ele>30.4188</ele>
        <time>2012-02-17T16:08:22Z</time>
      </trkpt>
      <trkpt lat="59.9758461" lon="17.7263492">
        <ele>31.3801</ele>
        <time>2012-02-17T16:08:27Z</time>
      </trkpt>
      <trkpt lat="59.9759317" lon="17.7262883">
        <ele>31.8607</ele>
        <time>2012-02-17T16:08:31Z</time>
      </trkpt>
      <trkpt lat="59.9760143" lon="17.7262154">
        <ele>32.8223</ele>
        <time>2012-02-17T16:08:35Z</time>
      </trkpt>
      <trkpt lat="59.9760998" lon="17.7261218">
        <ele>33.3029</ele>
        <time>2012-02-17T16:08:40Z</time>
      </trkpt>
      <trkpt lat="59.9761808" lon="17.7260454">
        <ele>32.8223</ele>
        <time>2012-02-17T16:08:45Z</time>
      </trkpt>
      <trkpt lat="59.9762269" lon="17.7259798">
        <ele>30.4188</ele>
        <time>2012-02-17T16:08:50Z</time>
      </trkpt>
      <trkpt lat="59.9762688" lon="17.7259311">
        <ele>28.4962</ele>
        <time>2012-02-17T16:08:54Z</time>
      </trkpt>
      <trkpt lat="59.9762974" lon="17.7259161">
        <ele>26.5736</ele>
        <time>2012-02-17T16:08:57Z</time>
      </trkpt>
      <trkpt lat="59.9763241" lon="17.7258954">
        <ele>25.1317</ele>
        <time>2012-02-17T16:09:00Z</time>
      </trkpt>
      <trkpt lat="59.9763615" lon="17.7258372">
        <ele>22.7283</ele>
        <time>2012-02-17T16:09:05Z</time>
      </trkpt>
      <trkpt lat="59.9764173" lon="17.7257731">
        <ele>19.8444</ele>
        <time>2012-02-17T16:09:11Z</time>
      </trkpt>
      <trkpt lat="59.9764292" lon="17.7257624">
        <ele>19.3638</ele>
        <time>2012-02-17T16:09:12Z</time>
      </trkpt>
      <trkpt lat="59.976495" lon="17.7256777">
        <ele>18.4023</ele>
        <time>2012-02-17T16:09:19Z</time>
      </trkpt>
      <trkpt lat="59.9765373" lon="17.7256286">
        <ele>17.4412</ele>
        <time>2012-02-17T16:09:24Z</time>
      </trkpt>
      <trkpt lat="59.9766038" lon="17.7255342">
        <ele>17.4412</ele>
        <time>2012-02-17T16:09:31Z</time>
      </trkpt>
      <trkpt lat="59.9766536" lon="17.7254839">
        <ele>17.9218</ele>
        <time>2012-02-17T16:09:36Z</time>
      </trkpt>
      <trkpt lat="59.9766744" lon="17.7254578">
        <ele>18.4023</ele>
        <time>2012-02-17T16:09:38Z</time>
      </trkpt>
      <trkpt lat="59.9767804" lon="17.72534">
        <ele>17.4412</ele>
        <time>2012-02-17T16:09:47Z</time>
      </trkpt>
      <trkpt lat="59.9768524" lon="17.7252623">
        <ele>14.557</ele>
        <time>2012-02-17T16:09:53Z</time>
      </trkpt>
      <trkpt lat="59.9769042" lon="17.7252038">
        <ele>13.5958</ele>
        <time>2012-02-17T16:09:58Z</time>
      </trkpt>
      <trkpt lat="59.9769252" lon="17.7251669">
        <ele>13.5958</ele>
        <time>2012-02-17T16:10:00Z</time>
      </trkpt>
      <trkpt lat="59.9769692" lon="17.7250909">
        <ele>13.1151</ele>
        <time>2012-02-17T16:10:05Z</time>
      </trkpt>
      <trkpt lat="59.977061" lon="17.7250298">
        <ele>12.6344</ele>
        <time>2012-02-17T16:10:13Z</time>
      </trkpt>
      <trkpt lat="59.9771532" lon="17.7249795">
        <ele>12.6344</ele>
        <time>2012-02-17T16:10:20Z</time>
      </trkpt>
      <trkpt lat="59.9772275" lon="17.7249666">
        <ele>13.1151</ele>
        <time>2012-02-17T16:10:25Z</time>
      </trkpt>
      <trkpt lat="59.9773656" lon="17.7249566">
        <ele>13.1151</ele>
        <time>2012-02-17T16:10:34Z</time>
      </trkpt>
      <trkpt lat="59.9774297" lon="17.7249723">
        <ele>12.1538</ele>
        <time>2012-02-17T16:10:37Z</time>
      </trkpt>
      <trkpt lat="59.9775443" lon="17.7250356">
        <ele>12.6344</ele>
        <time>2012-02-17T16:10:43Z</time>
      </trkpt>
      <trkpt lat="59.977669" lon="17.7250769">
        <ele>12.1538</ele>
        <time>2012-02-17T16:10:49Z</time>
      </trkpt>
      <trkpt lat="59.9777693" lon="17.7251467">
        <ele>11.6732</ele>
        <time>2012-02-17T16:10:54Z</time>
      </trkpt>
      <trkpt lat="59.9778705" lon="17.7251982">
        <ele>11.1925</ele>
        <time>2012-02-17T16:10:59Z</time>
      </trkpt>
      <trkpt lat="59.9779943" lon="17.7252573">
        <ele>10.7118</ele>
        <time>2012-02-17T16:11:05Z</time>
      </trkpt>
      <trkpt lat="59.9781211" lon="17.7253177">
        <ele>10.2312</ele>
        <time>2012-02-17T16:11:11Z</time>
      </trkpt>
      <trkpt lat="59.9782342" lon="17.7254099">
        <ele>10.7118</ele>
        <time>2012-02-17T16:11:17Z</time>
      </trkpt>
      <trkpt lat="59.9783575" lon="17.7255105">
        <ele>10.2312</ele>
        <time>2012-02-17T16:11:23Z</time>
      </trkpt>
      <trkpt lat="59.9784928" lon="17.7255944">
        <ele>11.6732</ele>
        <time>2012-02-17T16:11:30Z</time>
      </trkpt>
      <trkpt lat="59.9786252" lon="17.7256777">
        <ele>12.1538</ele>
        <time>2012-02-17T16:11:37Z</time>
      </trkpt>
      <trkpt lat="59.978745" lon="17.7257415">
        <ele>11.6732</ele>
        <time>2012-02-17T16:11:43Z</time>
      </trkpt>
      <trkpt lat="59.9788649" lon="17.7258074">
        <ele>12.1538</ele>
        <time>2012-02-17T16:11:49Z</time>
      </trkpt>
      <trkpt lat="59.9789686" lon="17.7259601">
        <ele>12.1538</ele>
        <time>2012-02-17T16:11:56Z</time>
      </trkpt>
      <trkpt lat="59.9790568" lon="17.7261056">
        <ele>14.0764</ele>
        <time>2012-02-17T16:12:02Z</time>
      </trkpt>
      <trkpt lat="59.9791221" lon="17.726192">
        <ele>14.557</ele>
        <time>2012-02-17T16:12:06Z</time>
      </trkpt>
      <trkpt lat="59.9792417" lon="17.7263112">
        <ele>14.557</ele>
        <time>2012-02-17T16:12:13Z</time>
      </trkpt>
      <trkpt lat="59.9793758" lon="17.7263936">
        <ele>14.557</ele>
        <time>2012-02-17T16:12:20Z</time>
      </trkpt>
      <trkpt lat="59.9794878" lon="17.7264356">
        <ele>15.999</ele>
        <time>2012-02-17T16:12:26Z</time>
      </trkpt>
      <trkpt lat="59.9795782" lon="17.7265154">
        <ele>15.999</ele>
        <time>2012-02-17T16:12:31Z</time>
      </trkpt>
      <trkpt lat="59.9796136" lon="17.7266362">
        <ele>13.1151</ele>
        <time>2012-02-17T16:12:35Z</time>
      </trkpt>
      <trkpt lat="59.979656" lon="17.7266734">
        <ele>11.6732</ele>
        <time>2012-02-17T16:12:39Z</time>
      </trkpt>
      <trkpt lat="59.979707" lon="17.7267369">
        <ele>9.75061</ele>
        <time>2012-02-17T16:12:44Z</time>
      </trkpt>
      <trkpt lat="59.9797653" lon="17.7268478">
        <ele>5.90527</ele>
        <time>2012-02-17T16:12:51Z</time>
      </trkpt>
      <trkpt lat="59.9798025" lon="17.7269527">
        <ele>5.90527</ele>
        <time>2012-02-17T16:12:56Z</time>
      </trkpt>
      <trkpt lat="59.9798496" lon="17.7270814">
        <ele>6.38586</ele>
        <time>2012-02-17T16:13:01Z</time>
      </trkpt>
      <trkpt lat="59.9799424" lon="17.727265">
        <ele>7.34717</ele>
        <time>2012-02-17T16:13:08Z</time>
      </trkpt>
      <trkpt lat="59.9800513" lon="17.7273563">
        <ele>11.1925</ele>
        <time>2012-02-17T16:13:15Z</time>
      </trkpt>
      <trkpt lat="59.9801523" lon="17.7274546">
        <ele>15.5184</ele>
        <time>2012-02-17T16:13:22Z</time>
      </trkpt>
      <trkpt lat="59.9802288" lon="17.7275488">
        <ele>17.4412</ele>
        <time>2012-02-17T16:13:28Z</time>
      </trkpt>
      <trkpt lat="59.98032" lon="17.7276482">
        <ele>19.3638</ele>
        <time>2012-02-17T16:13:35Z</time>
      </trkpt>
      <trkpt lat="59.9803513" lon="17.7276913">
        <ele>19.8444</ele>
        <time>2012-02-17T16:13:37Z</time>
      </trkpt>
      <trkpt lat="59.9804027" lon="17.7277838">
        <ele>20.325</ele>
        <time>2012-02-17T16:13:42Z</time>
      </trkpt>
      <trkpt lat="59.9804388" lon="17.7278446">
        <ele>20.325</ele>
        <time>2012-02-17T16:13:45Z</time>
      </trkpt>
      <trkpt lat="59.9805109" lon="17.7279835">
        <ele>17.9218</ele>
        <time>2012-02-17T16:13:52Z</time>
      </trkpt>
      <trkpt lat="59.9805303" lon="17.7280154">
        <ele>17.9218</ele>
        <time>2012-02-17T16:13:54Z</time>
      </trkpt>
      <trkpt lat="59.9805994" lon="17.7281418">
        <ele>17.9218</ele>
        <time>2012-02-17T16:14:01Z</time>
      </trkpt>
      <trkpt lat="59.9806547" lon="17.7282255">
        <ele>16.9604</ele>
        <time>2012-02-17T16:14:06Z</time>
      </trkpt>
      <trkpt lat="59.9807137" lon="17.7283362">
        <ele>15.0377</ele>
        <time>2012-02-17T16:14:13Z</time>
      </trkpt>
      <trkpt lat="59.9807282" lon="17.7283687">
        <ele>14.0764</ele>
        <time>2012-02-17T16:14:15Z</time>
      </trkpt>
      <trkpt lat="59.9807543" lon="17.7284285">
        <ele>12.6344</ele>
        <time>2012-02-17T16:14:19Z</time>
      </trkpt>
      <trkpt lat="59.9807786" lon="17.7284948">
        <ele>13.1151</ele>
        <time>2012-02-17T16:14:25Z</time>
      </trkpt>
      <trkpt lat="59.9807987" lon="17.7285491">
        <ele>13.5958</ele>
        <time>2012-02-17T16:14:29Z</time>
      </trkpt>
      <trkpt lat="59.980847" lon="17.7286496">
        <ele>15.999</ele>
        <time>2012-02-17T16:14:35Z</time>
      </trkpt>
      <trkpt lat="59.9808833" lon="17.7287014">
        <ele>17.9218</ele>
        <time>2012-02-17T16:14:39Z</time>
      </trkpt>
      <trkpt lat="59.9809801" lon="17.7287678">
        <ele>20.8057</ele>
        <time>2012-02-17T16:14:46Z</time>
      </trkpt>
      <trkpt lat="59.9810248" lon="17.7288459">
        <ele>21.2864</ele>
        <time>2012-02-17T16:14:51Z</time>
      </trkpt>
      <trkpt lat="59.9810773" lon="17.7288486">
        <ele>23.209</ele>
        <time>2012-02-17T16:14:56Z</time>
      </trkpt>
      <trkpt lat="59.981092" lon="17.7287456">
        <ele>21.767</ele>
        <time>2012-02-17T16:15:03Z</time>
      </trkpt>
      <trkpt lat="59.9811376" lon="17.7287283">
        <ele>20.8057</ele>
        <time>2012-02-17T16:15:10Z</time>
      </trkpt>
      <trkpt lat="59.9812045" lon="17.7286837">
        <ele>18.4023</ele>
        <time>2012-02-17T16:15:15Z</time>
      </trkpt>
      <trkpt lat="59.9812498" lon="17.7286308">
        <ele>16.9604</ele>
        <time>2012-02-17T16:15:21Z</time>
      </trkpt>
      <trkpt lat="59.981312" lon="17.7285315">
        <ele>15.5184</ele>
        <time>2012-02-17T16:15:28Z</time>
      </trkpt>
      <trkpt lat="59.9813753" lon="17.7284163">
        <ele>17.9218</ele>
        <time>2012-02-17T16:15:36Z</time>
      </trkpt>
      <trkpt lat="59.981437" lon="17.7283338">
        <ele>19.3638</ele>
        <time>2012-02-17T16:15:42Z</time>
      </trkpt>
      <trkpt lat="59.9814965" lon="17.7282564">
        <ele>20.8057</ele>
        <time>2012-02-17T16:15:47Z</time>
      </trkpt>
      <trkpt lat="59.9815986" lon="17.728172">
        <ele>21.2864</ele>
        <time>2012-02-17T16:15:52Z</time>
      </trkpt>
      <trkpt lat="59.9816183" lon="17.7281639">
        <ele>21.2864</ele>
        <time>2012-02-17T16:15:53Z</time>
      </trkpt>
      <trkpt lat="59.9816815" lon="17.7281352">
        <ele>20.8057</ele>
        <time>2012-02-17T16:15:58Z</time>
      </trkpt>
      <trkpt lat="59.9817494" lon="17.7280836">
        <ele>19.8444</ele>
        <time>2012-02-17T16:16:04Z</time>
      </trkpt>
      <trkpt lat="59.9817768" lon="17.7280677">
        <ele>19.3638</ele>
        <time>2012-02-17T16:16:06Z</time>
      </trkpt>
      <trkpt lat="59.9818228" lon="17.728012">
        <ele>18.4023</ele>
        <time>2012-02-17T16:16:10Z</time>
      </trkpt>
      <trkpt lat="59.9818654" lon="17.7279135">
        <ele>18.4023</ele>
        <time>2012-02-17T16:16:16Z</time>
      </trkpt>
      <trkpt lat="59.9818986" lon="17.7278607">
        <ele>21.2864</ele>
        <time>2012-02-17T16:16:20Z</time>
      </trkpt>
      <trkpt lat="59.981938" lon="17.7277855">
        <ele>23.6896</ele>
        <time>2012-02-17T16:16:25Z</time>
      </trkpt>
      <trkpt lat="59.9819626" lon="17.7277473">
        <ele>24.1703</ele>
        <time>2012-02-17T16:16:27Z</time>
      </trkpt>
      <trkpt lat="59.982051" lon="17.7276274">
        <ele>26.0929</ele>
        <time>2012-02-17T16:16:34Z</time>
      </trkpt>
      <trkpt lat="59.9820659" lon="17.7276142">
        <ele>26.5736</ele>
        <time>2012-02-17T16:16:36Z</time>
      </trkpt>
      <trkpt lat="59.9821115" lon="17.7275519">
        <ele>25.6123</ele>
        <time>2012-02-17T16:16:41Z</time>
      </trkpt>
      <trkpt lat="59.9821503" lon="17.7275121">
        <ele>26.0929</ele>
        <time>2012-02-17T16:16:47Z</time>
      </trkpt>
      <trkpt lat="59.9821698" lon="17.7274505">
        <ele>27.5349</ele>
        <time>2012-02-17T16:16:51Z</time>
      </trkpt>
      <trkpt lat="59.9821965" lon="17.7273824">
        <ele>29.4575</ele>
        <time>2012-02-17T16:16:57Z</time>
      </trkpt>
      <trkpt lat="59.9822138" lon="17.7273163">
        <ele>29.9381</ele>
        <time>2012-02-17T16:17:01Z</time>
      </trkpt>
      <trkpt lat="59.9822506" lon="17.7271964">
        <ele>28.9769</ele>
        <time>2012-02-17T16:17:07Z</time>
      </trkpt>
      <trkpt lat="59.9822839" lon="17.7271174">
        <ele>29.9381</ele>
        <time>2012-02-17T16:17:12Z</time>
      </trkpt>
      <trkpt lat="59.9823364" lon="17.7270091">
        <ele>30.8995</ele>
        <time>2012-02-17T16:17:18Z</time>
      </trkpt>
      <trkpt lat="59.982344" lon="17.7269966">
        <ele>30.8995</ele>
        <time>2012-02-17T16:17:19Z</time>
      </trkpt>
      <trkpt lat="59.9823808" lon="17.7269386">
        <ele>30.8995</ele>
        <time>2012-02-17T16:17:23Z</time>
      </trkpt>
      <trkpt lat="59.9824269" lon="17.7268796">
        <ele>30.8995</ele>
        <time>2012-02-17T16:17:28Z</time>
      </trkpt>
      <trkpt lat="59.9824772" lon="17.7268194">
        <ele>30.4188</ele>
        <time>2012-02-17T16:17:33Z</time>
      </trkpt>
      <trkpt lat="59.9825357" lon="17.7267693">
        <ele>29.9381</ele>
        <time>2012-02-17T16:17:38Z</time>
      </trkpt>
      <trkpt lat="59.9825605" lon="17.7267473">
        <ele>29.9381</ele>
        <time>2012-02-17T16:17:40Z</time>
      </trkpt>
      <trkpt lat="59.982615" lon="17.7266741">
        <ele>31.3801</ele>
        <time>2012-02-17T16:17:46Z</time>
      </trkpt>
      <trkpt lat="59.9826545" lon="17.7266288">
        <ele>30.4188</ele>
        <time>2012-02-17T16:17:50Z</time>
      </trkpt>
      <trkpt lat="59.9827234" lon="17.7266101">
        <ele>29.4575</ele>
        <time>2012-02-17T16:17:55Z</time>
      </trkpt>
      <trkpt lat="59.9827982" lon="17.7266158">
        <ele>26.5736</ele>
        <time>2012-02-17T16:18:00Z</time>
      </trkpt>
      <trkpt lat="59.9828605" lon="17.7265941">
        <ele>25.1317</ele>
        <time>2012-02-17T16:18:05Z</time>
      </trkpt>
      <trkpt lat="59.9829284" lon="17.726604">
        <ele>23.6896</ele>
        <time>2012-02-17T16:18:10Z</time>
      </trkpt>
      <trkpt lat="59.9830045" lon="17.7265886">
        <ele>23.6896</ele>
        <time>2012-02-17T16:18:16Z</time>
      </trkpt>
      <trkpt lat="59.9830517" lon="17.7265833">
        <ele>23.6896</ele>
        <time>2012-02-17T16:18:20Z</time>
      </trkpt>
      <trkpt lat="59.9831046" lon="17.7265507">
        <ele>24.651</ele>
        <time>2012-02-17T16:18:25Z</time>
      </trkpt>
      <trkpt lat="59.9831548" lon="17.726546">
        <ele>24.651</ele>
        <time>2012-02-17T16:18:29Z</time>
      </trkpt>
      <trkpt lat="59.9832064" lon="17.7266018">
        <ele>24.1703</ele>
        <time>2012-02-17T16:18:32Z</time>
      </trkpt>
      <trkpt lat="59.9832862" lon="17.7266231">
        <ele>22.2476</ele>
        <time>2012-02-17T16:18:39Z</time>
      </trkpt>
      <trkpt lat="59.9833564" lon="17.7266126">
        <ele>21.767</ele>
        <time>2012-02-17T16:18:45Z</time>
      </trkpt>
      <trkpt lat="59.9833733" lon="17.7266113">
        <ele>22.7283</ele>
        <time>2012-02-17T16:18:47Z</time>
      </trkpt>
      <trkpt lat="59.9833866" lon="17.7265963">
        <ele>23.6896</ele>
        <time>2012-02-17T16:18:49Z</time>
      </trkpt>
      <trkpt lat="59.9834511" lon="17.7266102">
        <ele>24.651</ele>
        <time>2012-02-17T16:18:55Z</time>
      </trkpt>
      <trkpt lat="59.9835075" lon="17.7266357">
        <ele>23.6896</ele>
        <time>2012-02-17T16:18:59Z</time>
      </trkpt>
      <trkpt lat="59.98359" lon="17.7266162">
        <ele>23.209</ele>
        <time>2012-02-17T16:19:06Z</time>
      </trkpt>
      <trkpt lat="59.9836515" lon="17.7266056">
        <ele>23.6896</ele>
        <time>2012-02-17T16:19:11Z</time>
      </trkpt>
      <trkpt lat="59.9836753" lon="17.7265924">
        <ele>23.209</ele>
        <time>2012-02-17T16:19:13Z</time>
      </trkpt>
      <trkpt lat="59.9837296" lon="17.7265886">
        <ele>23.209</ele>
        <time>2012-02-17T16:19:17Z</time>
      </trkpt>
      <trkpt lat="59.9838018" lon="17.7265893">
        <ele>22.2476</ele>
        <time>2012-02-17T16:19:23Z</time>
      </trkpt>
      <trkpt lat="59.9838458" lon="17.7265789">
        <ele>22.2476</ele>
        <time>2012-02-17T16:19:27Z</time>
      </trkpt>
      <trkpt lat="59.983913" lon="17.7265749">
        <ele>23.6896</ele>
        <time>2012-02-17T16:19:33Z</time>
      </trkpt>
      <trkpt lat="59.9839966" lon="17.7265693">
        <ele>23.6896</ele>
        <time>2012-02-17T16:19:40Z</time>
      </trkpt>
      <trkpt lat="59.9840747" lon="17.7265846">
        <ele>25.1317</ele>
        <time>2012-02-17T16:19:46Z</time>
      </trkpt>
      <trkpt lat="59.9841623" lon="17.7265693">
        <ele>26.0929</ele>
        <time>2012-02-17T16:19:53Z</time>
      </trkpt>
      <trkpt lat="59.9842213" lon="17.7265703">
        <ele>26.0929</ele>
        <time>2012-02-17T16:19:57Z</time>
      </trkpt>
      <trkpt lat="59.9843058" lon="17.7265501">
        <ele>26.0929</ele>
        <time>2012-02-17T16:20:05Z</time>
      </trkpt>
      <trkpt lat="59.9843638" lon="17.7265603">
        <ele>26.0929</ele>
        <time>2012-02-17T16:20:11Z</time>
      </trkpt>
      <trkpt lat="59.9844213" lon="17.7265501">
        <ele>25.6123</ele>
        <time>2012-02-17T16:20:16Z</time>
      </trkpt>
      <trkpt lat="59.9844896" lon="17.7265624">
        <ele>26.0929</ele>
        <time>2012-02-17T16:20:22Z</time>
      </trkpt>
      <trkpt lat="59.9845466" lon="17.7265515">
        <ele>26.0929</ele>
        <time>2012-02-17T16:20:27Z</time>
      </trkpt>
      <trkpt lat="59.9846303" lon="17.7265515">
        <ele>26.5736</ele>
        <time>2012-02-17T16:20:34Z</time>
      </trkpt>
      <trkpt lat="59.9846435" lon="17.7265553">
        <ele>26.0929</ele>
        <time>2012-02-17T16:20:35Z</time>
      </trkpt>
      <trkpt lat="59.9847465" lon="17.7265541">
        <ele>26.0929</ele>
        <time>2012-02-17T16:20:43Z</time>
      </trkpt>
      <trkpt lat="59.9847599" lon="17.7265525">
        <ele>26.5736</ele>
        <time>2012-02-17T16:20:44Z</time>
      </trkpt>
      <trkpt lat="59.9848283" lon="17.7265516">
        <ele>26.5736</ele>
        <time>2012-02-17T16:20:48Z</time>
      </trkpt>
      <trkpt lat="59.9849127" lon="17.7265561">
        <ele>28.0155</ele>
        <time>2012-02-17T16:20:55Z</time>
      </trkpt>
      <trkpt lat="59.9849767" lon="17.7265541">
        <ele>28.4962</ele>
        <time>2012-02-17T16:21:01Z</time>
      </trkpt>
      <trkpt lat="59.9850206" lon="17.7265491">
        <ele>28.0155</ele>
        <time>2012-02-17T16:21:05Z</time>
      </trkpt>
      <trkpt lat="59.9851154" lon="17.7265626">
        <ele>28.0155</ele>
        <time>2012-02-17T16:21:13Z</time>
      </trkpt>
      <trkpt lat="59.9851566" lon="17.7265622">
        <ele>28.0155</ele>
        <time>2012-02-17T16:21:17Z</time>
      </trkpt>
      <trkpt lat="59.9852237" lon="17.7265614">
        <ele>28.0155</ele>
        <time>2012-02-17T16:21:23Z</time>
      </trkpt>
      <trkpt lat="59.9853107" lon="17.7265362">
        <ele>27.5349</ele>
        <time>2012-02-17T16:21:31Z</time>
      </trkpt>
      <trkpt lat="59.9853833" lon="17.7265287">
        <ele>27.5349</ele>
        <time>2012-02-17T16:21:37Z</time>
      </trkpt>
      <trkpt lat="59.9854428" lon="17.7265288">
        <ele>27.0543</ele>
        <time>2012-02-17T16:21:42Z</time>
      </trkpt>
      <trkpt lat="59.9855283" lon="17.7265262">
        <ele>26.5736</ele>
        <time>2012-02-17T16:21:50Z</time>
      </trkpt>
      <trkpt lat="59.9855805" lon="17.7265263">
        <ele>26.5736</ele>
        <time>2012-02-17T16:21:55Z</time>
      </trkpt>
      <trkpt lat="59.9856881" lon="17.7265334">
        <ele>26.5736</ele>
        <time>2012-02-17T16:22:04Z</time>
      </trkpt>
      <trkpt lat="59.9858193" lon="17.7265271">
        <ele>28.4962</ele>
        <time>2012-02-17T16:22:14Z</time>
      </trkpt>
      <trkpt lat="59.9859002" lon="17.7265191">
        <ele>28.0155</ele>
        <time>2012-02-17T16:22:20Z</time>
      </trkpt>
      <trkpt lat="59.986006" lon="17.7265065">
        <ele>28.4962</ele>
        <time>2012-02-17T16:22:29Z</time>
      </trkpt>
      <trkpt lat="59.9860194" lon="17.7265101">
        <ele>28.9769</ele>
        <time>2012-02-17T16:22:30Z</time>
      </trkpt>
      <trkpt lat="59.9860416" lon="17.7265057">
        <ele>28.9769</ele>
        <time>2012-02-17T16:22:32Z</time>
      </trkpt>
      <trkpt lat="59.9860995" lon="17.7264983">
        <ele>28.9769</ele>
        <time>2012-02-17T16:22:37Z</time>
      </trkpt>
      <trkpt lat="59.9861727" lon="17.7264988">
        <ele>27.5349</ele>
        <time>2012-02-17T16:22:42Z</time>
      </trkpt>
      <trkpt lat="59.9862483" lon="17.7264988">
        <ele>27.5349</ele>
        <time>2012-02-17T16:22:48Z</time>
      </trkpt>
      <trkpt lat="59.9863094" lon="17.7265092">
        <ele>27.0543</ele>
        <time>2012-02-17T16:22:53Z</time>
      </trkpt>
      <trkpt lat="59.9863769" lon="17.7265091">
        <ele>24.651</ele>
        <time>2012-02-17T16:22:59Z</time>
      </trkpt>
      <trkpt lat="59.9864544" lon="17.726504">
        <ele>25.1317</ele>
        <time>2012-02-17T16:23:06Z</time>
      </trkpt>
      <trkpt lat="59.9865053" lon="17.7265076">
        <ele>25.1317</ele>
        <time>2012-02-17T16:23:10Z</time>
      </trkpt>
      <trkpt lat="59.9865146" lon="17.7265097">
        <ele>25.1317</ele>
        <time>2012-02-17T16:23:11Z</time>
      </trkpt>
      <trkpt lat="59.9866201" lon="17.7265087">
        <ele>25.1317</ele>
        <time>2012-02-17T16:23:20Z</time>
      </trkpt>
      <trkpt lat="59.9867022" lon="17.7265009">
        <ele>25.6123</ele>
        <time>2012-02-17T16:23:27Z</time>
      </trkpt>
      <trkpt lat="59.9868042" lon="17.7265002">
        <ele>25.6123</ele>
        <time>2012-02-17T16:23:36Z</time>
      </trkpt>
      <trkpt lat="59.9868829" lon="17.7265082">
        <ele>25.6123</ele>
        <time>2012-02-17T16:23:43Z</time>
      </trkpt>
      <trkpt lat="59.986892" lon="17.7265081">
        <ele>26.0929</ele>
        <time>2012-02-17T16:23:44Z</time>
      </trkpt>
      <trkpt lat="59.9869585" lon="17.7265118">
        <ele>26.5736</ele>
        <time>2012-02-17T16:23:49Z</time>
      </trkpt>
      <trkpt lat="59.9870984" lon="17.7265282">
        <ele>27.0543</ele>
        <time>2012-02-17T16:23:59Z</time>
      </trkpt>
      <trkpt lat="59.9872157" lon="17.726519">
        <ele>26.5736</ele>
        <time>2012-02-17T16:24:08Z</time>
      </trkpt>
      <trkpt lat="59.9873066" lon="17.7265217">
        <ele>27.0543</ele>
        <time>2012-02-17T16:24:14Z</time>
      </trkpt>
      <trkpt lat="59.9873797" lon="17.7265235">
        <ele>26.5736</ele>
        <time>2012-02-17T16:24:19Z</time>
      </trkpt>
      <trkpt lat="59.9874351" lon="17.7265121">
        <ele>26.5736</ele>
        <time>2012-02-17T16:24:23Z</time>
      </trkpt>
      <trkpt lat="59.9875274" lon="17.7265118">
        <ele>25.6123</ele>
        <time>2012-02-17T16:24:29Z</time>
      </trkpt>
      <trkpt lat="59.9875774" lon="17.7265014">
        <ele>25.1317</ele>
        <time>2012-02-17T16:24:33Z</time>
      </trkpt>
      <trkpt lat="59.9876783" lon="17.7265138">
        <ele>25.1317</ele>
        <time>2012-02-17T16:24:40Z</time>
      </trkpt>
      <trkpt lat="59.9877697" lon="17.7265288">
        <ele>23.6896</ele>
        <time>2012-02-17T16:24:47Z</time>
      </trkpt>
      <trkpt lat="59.9878583" lon="17.7265424">
        <ele>21.767</ele>
        <time>2012-02-17T16:24:53Z</time>
      </trkpt>
      <trkpt lat="59.9879437" lon="17.726547">
        <ele>21.767</ele>
        <time>2012-02-17T16:24:59Z</time>
      </trkpt>
      <trkpt lat="59.9880023" lon="17.7265476">
        <ele>21.767</ele>
        <time>2012-02-17T16:25:04Z</time>
      </trkpt>
      <trkpt lat="59.9880738" lon="17.7265419">
        <ele>21.767</ele>
        <time>2012-02-17T16:25:10Z</time>
      </trkpt>
      <trkpt lat="59.9881427" lon="17.7265237">
        <ele>21.767</ele>
        <time>2012-02-17T16:25:16Z</time>
      </trkpt>
      <trkpt lat="59.9882276" lon="17.7265329">
        <ele>21.767</ele>
        <time>2012-02-17T16:25:22Z</time>
      </trkpt>
      <trkpt lat="59.988298" lon="17.7265277">
        <ele>20.8057</ele>
        <time>2012-02-17T16:25:27Z</time>
      </trkpt>
      <trkpt lat="59.9883208" lon="17.7265453">
        <ele>20.325</ele>
        <time>2012-02-17T16:25:29Z</time>
      </trkpt>
      <trkpt lat="59.9884106" lon="17.7265398">
        <ele>19.3638</ele>
        <time>2012-02-17T16:25:36Z</time>
      </trkpt>
      <trkpt lat="59.9884909" lon="17.7265419">
        <ele>18.8831</ele>
        <time>2012-02-17T16:25:42Z</time>
      </trkpt>
      <trkpt lat="59.9885777" lon="17.7265392">
        <ele>19.8444</ele>
        <time>2012-02-17T16:25:49Z</time>
      </trkpt>
      <trkpt lat="59.9886644" lon="17.7265439">
        <ele>19.8444</ele>
        <time>2012-02-17T16:25:56Z</time>
      </trkpt>
      <trkpt lat="59.9887674" lon="17.7265549">
        <ele>19.8444</ele>
        <time>2012-02-17T16:26:04Z</time>
      </trkpt>
      <trkpt lat="59.9888637" lon="17.726553">
        <ele>21.2864</ele>
        <time>2012-02-17T16:26:12Z</time>
      </trkpt>
      <trkpt lat="59.9889102" lon="17.7265564">
        <ele>21.767</ele>
        <time>2012-02-17T16:26:16Z</time>
      </trkpt>
      <trkpt lat="59.9889988" lon="17.7265492">
        <ele>23.209</ele>
        <time>2012-02-17T16:26:24Z</time>
      </trkpt>
      <trkpt lat="59.989078" lon="17.7265344">
        <ele>24.651</ele>
        <time>2012-02-17T16:26:31Z</time>
      </trkpt>
      <trkpt lat="59.9891234" lon="17.7265244">
        <ele>25.1317</ele>
        <time>2012-02-17T16:26:35Z</time>
      </trkpt>
      <trkpt lat="59.9891674" lon="17.7265298">
        <ele>25.6123</ele>
        <time>2012-02-17T16:26:39Z</time>
      </trkpt>
      <trkpt lat="59.9892781" lon="17.7265403">
        <ele>25.6123</ele>
        <time>2012-02-17T16:26:47Z</time>
      </trkpt>
      <trkpt lat="59.9893045" lon="17.726536">
        <ele>25.6123</ele>
        <time>2012-02-17T16:26:49Z</time>
      </trkpt>
      <trkpt lat="59.9893481" lon="17.7265238">
        <ele>24.651</ele>
        <time>2012-02-17T16:26:53Z</time>
      </trkpt>
      <trkpt lat="59.9893931" lon="17.726531">
        <ele>23.6896</ele>
        <time>2012-02-17T16:26:57Z</time>
      </trkpt>
      <trkpt lat="59.989463" lon="17.7265295">
        <ele>23.6896</ele>
        <time>2012-02-17T16:27:03Z</time>
      </trkpt>
      <trkpt lat="59.9895053" lon="17.726518">
        <ele>23.209</ele>
        <time>2012-02-17T16:27:08Z</time>
      </trkpt>
      <trkpt lat="59.9895444" lon="17.7265044">
        <ele>24.1703</ele>
        <time>2012-02-17T16:27:11Z</time>
      </trkpt>
      <trkpt lat="59.9896069" lon="17.7265209">
        <ele>19.8444</ele>
        <time>2012-02-17T16:27:18Z</time>
      </trkpt>
      <trkpt lat="59.9895853" lon="17.7265407">
        <ele>18.8831</ele>
        <time>2012-02-17T16:27:20Z</time>
      </trkpt>
      <trkpt lat="59.9895792" lon="17.726658">
        <ele>18.8831</ele>
        <time>2012-02-17T16:27:24Z</time>
      </trkpt>
      <trkpt lat="59.9895594" lon="17.726881">
        <ele>18.4023</ele>
        <time>2012-02-17T16:27:30Z</time>
      </trkpt>
      <trkpt lat="59.989543" lon="17.7270733">
        <ele>17.9218</ele>
        <time>2012-02-17T16:27:36Z</time>
      </trkpt>
      <trkpt lat="59.9895406" lon="17.7272079">
        <ele>19.8444</ele>
        <time>2012-02-17T16:27:40Z</time>
      </trkpt>
      <trkpt lat="59.9895538" lon="17.7273744">
        <ele>24.1703</ele>
        <time>2012-02-17T16:27:46Z</time>
      </trkpt>
      <trkpt lat="59.9895552" lon="17.7275815">
        <ele>27.0543</ele>
        <time>2012-02-17T16:27:52Z</time>
      </trkpt>
      <trkpt lat="59.989564" lon="17.7277212">
        <ele>28.9769</ele>
        <time>2012-02-17T16:27:56Z</time>
      </trkpt>
      <trkpt lat="59.9895694" lon="17.7279638">
        <ele>30.8995</ele>
        <time>2012-02-17T16:28:04Z</time>
      </trkpt>
      <trkpt lat="59.9895709" lon="17.7279865">
        <ele>30.8995</ele>
        <time>2012-02-17T16:28:05Z</time>
      </trkpt>
      <trkpt lat="59.9895825" lon="17.7282066">
        <ele>34.7449</ele>
        <time>2012-02-17T16:28:12Z</time>
      </trkpt>
      <trkpt lat="59.9895687" lon="17.7284031">
        <ele>33.7834</ele>
        <time>2012-02-17T16:28:18Z</time>
      </trkpt>
      <trkpt lat="59.9895537" lon="17.7285905">
        <ele>33.3029</ele>
        <time>2012-02-17T16:28:25Z</time>
      </trkpt>
      <trkpt lat="59.98951" lon="17.728742">
        <ele>32.8223</ele>
        <time>2012-02-17T16:28:31Z</time>
      </trkpt>
      <trkpt lat="59.9894388" lon="17.7288557">
        <ele>30.8995</ele>
        <time>2012-02-17T16:28:36Z</time>
      </trkpt>
      <trkpt lat="59.9894205" lon="17.7288867">
        <ele>31.3801</ele>
        <time>2012-02-17T16:28:38Z</time>
      </trkpt>
      <trkpt lat="59.9893784" lon="17.7289642">
        <ele>31.8607</ele>
        <time>2012-02-17T16:28:44Z</time>
      </trkpt>
      <trkpt lat="59.9892657" lon="17.7290884">
        <ele>31.8607</ele>
        <time>2012-02-17T16:28:50Z</time>
      </trkpt>
      <trkpt lat="59.9892511" lon="17.7291017">
        <ele>31.8607</ele>
        <time>2012-02-17T16:28:51Z</time>
      </trkpt>
      <trkpt lat="59.9892127" lon="17.7291739">
        <ele>32.8223</ele>
        <time>2012-02-17T16:28:55Z</time>
      </trkpt>
      <trkpt lat="59.9891479" lon="17.7292543">
        <ele>33.7834</ele>
        <time>2012-02-17T16:29:00Z</time>
      </trkpt>
      <trkpt lat="59.9890922" lon="17.7293328">
        <ele>33.7834</ele>
        <time>2012-02-17T16:29:06Z</time>
      </trkpt>
      <trkpt lat="59.9890449" lon="17.7294008">
        <ele>32.8223</ele>
        <time>2012-02-17T16:29:18Z</time>
      </trkpt>
      <trkpt lat="59.9889844" lon="17.7294819">
        <ele>33.3029</ele>
        <time>2012-02-17T16:29:23Z</time>
      </trkpt>
      <trkpt lat="59.9888968" lon="17.7295526">
        <ele>33.7834</ele>
        <time>2012-02-17T16:29:28Z</time>
      </trkpt>
      <trkpt lat="59.9888328" lon="17.7296163">
        <ele>34.2642</ele>
        <time>2012-02-17T16:29:32Z</time>
      </trkpt>
      <trkpt lat="59.9888087" lon="17.7296713">
        <ele>35.7061</ele>
        <time>2012-02-17T16:29:36Z</time>
      </trkpt>
      <trkpt lat="59.9887067" lon="17.7297426">
        <ele>38.1094</ele>
        <time>2012-02-17T16:29:41Z</time>
      </trkpt>
      <trkpt lat="59.9886786" lon="17.7297953">
        <ele>40.5128</ele>
        <time>2012-02-17T16:29:44Z</time>
      </trkpt>
      <trkpt lat="59.9886124" lon="17.7298507">
        <ele>42.4354</ele>
        <time>2012-02-17T16:29:48Z</time>
      </trkpt>
      <trkpt lat="59.988515" lon="17.7299745">
        <ele>40.9934</ele>
        <time>2012-02-17T16:29:53Z</time>
      </trkpt>
      <trkpt lat="59.9884716" lon="17.7300471">
        <ele>39.5513</ele>
        <time>2012-02-17T16:29:58Z</time>
      </trkpt>
      <trkpt lat="59.9884479" lon="17.7300809">
        <ele>38.5901</ele>
        <time>2012-02-17T16:30:00Z</time>
      </trkpt>
      <trkpt lat="59.9883987" lon="17.7301493">
        <ele>38.1094</ele>
        <time>2012-02-17T16:30:06Z</time>
      </trkpt>
      <trkpt lat="59.9883265" lon="17.7302446">
        <ele>37.6287</ele>
        <time>2012-02-17T16:30:11Z</time>
      </trkpt>
      <trkpt lat="59.9883023" lon="17.7303601">
        <ele>38.1094</ele>
        <time>2012-02-17T16:30:16Z</time>
      </trkpt>
      <trkpt lat="59.9882436" lon="17.7304822">
        <ele>39.5513</ele>
        <time>2012-02-17T16:30:21Z</time>
      </trkpt>
      <trkpt lat="59.9882349" lon="17.7305031">
        <ele>40.5128</ele>
        <time>2012-02-17T16:30:23Z</time>
      </trkpt>
      <trkpt lat="59.9882002" lon="17.7305486">
        <ele>40.9934</ele>
        <time>2012-02-17T16:30:25Z</time>
      </trkpt>
      <trkpt lat="59.9881792" lon="17.7305994">
        <ele>42.4354</ele>
        <time>2012-02-17T16:30:28Z</time>
      </trkpt>
      <trkpt lat="59.9881229" lon="17.7307342">
        <ele>44.358</ele>
        <time>2012-02-17T16:30:34Z</time>
      </trkpt>
      <trkpt lat="59.9880774" lon="17.7308729">
        <ele>43.3966</ele>
        <time>2012-02-17T16:30:39Z</time>
      </trkpt>
      <trkpt lat="59.988042" lon="17.7309817">
        <ele>41.9547</ele>
        <time>2012-02-17T16:30:44Z</time>
      </trkpt>
      <trkpt lat="59.9879475" lon="17.7311572">
        <ele>40.0321</ele>
        <time>2012-02-17T16:30:51Z</time>
      </trkpt>
      <trkpt lat="59.9878619" lon="17.7312529">
        <ele>40.0321</ele>
        <time>2012-02-17T16:30:55Z</time>
      </trkpt>
      <trkpt lat="59.9877986" lon="17.7313775">
        <ele>40.5128</ele>
        <time>2012-02-17T16:31:00Z</time>
      </trkpt>
      <trkpt lat="59.9877779" lon="17.7314195">
        <ele>40.0321</ele>
        <time>2012-02-17T16:31:02Z</time>
      </trkpt>
      <trkpt lat="59.987713" lon="17.7315111">
        <ele>38.5901</ele>
        <time>2012-02-17T16:31:08Z</time>
      </trkpt>
      <trkpt lat="59.9876298" lon="17.7316395">
        <ele>37.6287</ele>
        <time>2012-02-17T16:31:14Z</time>
      </trkpt>
      <trkpt lat="59.9876063" lon="17.7316889">
        <ele>37.6287</ele>
        <time>2012-02-17T16:31:17Z</time>
      </trkpt>
      <trkpt lat="59.9875918" lon="17.7317288">
        <ele>37.1481</ele>
        <time>2012-02-17T16:31:20Z</time>
      </trkpt>
      <trkpt lat="59.987517" lon="17.7318452">
        <ele>37.6287</ele>
        <time>2012-02-17T16:31:25Z</time>
      </trkpt>
      <trkpt lat="59.9874826" lon="17.7319605">
        <ele>37.6287</ele>
        <time>2012-02-17T16:31:31Z</time>
      </trkpt>
      <trkpt lat="59.9874706" lon="17.7319866">
        <ele>37.6287</ele>
        <time>2012-02-17T16:31:33Z</time>
      </trkpt>
      <trkpt lat="59.9874552" lon="17.732059">
        <ele>38.1094</ele>
        <time>2012-02-17T16:31:37Z</time>
      </trkpt>
      <trkpt lat="59.9874194" lon="17.7321317">
        <ele>38.5901</ele>
        <time>2012-02-17T16:31:39Z</time>
      </trkpt>
      <trkpt lat="59.9873513" lon="17.7323581">
        <ele>39.0707</ele>
        <time>2012-02-17T16:31:46Z</time>
      </trkpt>
      <trkpt lat="59.9872848" lon="17.7325136">
        <ele>38.5901</ele>
        <time>2012-02-17T16:31:52Z</time>
      </trkpt>
      <trkpt lat="59.9872755" lon="17.7325409">
        <ele>38.5901</ele>
        <time>2012-02-17T16:31:53Z</time>
      </trkpt>
      <trkpt lat="59.9872448" lon="17.7327704">
        <ele>40.0321</ele>
        <time>2012-02-17T16:32:00Z</time>
      </trkpt>
      <trkpt lat="59.9872117" lon="17.7329367">
        <ele>39.0707</ele>
        <time>2012-02-17T16:32:06Z</time>
      </trkpt>
      <trkpt lat="59.9871792" lon="17.7330356">
        <ele>40.0321</ele>
        <time>2012-02-17T16:32:10Z</time>
      </trkpt>
      <trkpt lat="59.9871513" lon="17.7331739">
        <ele>40.9934</ele>
        <time>2012-02-17T16:32:15Z</time>
      </trkpt>
      <trkpt lat="59.9871382" lon="17.7332566">
        <ele>41.9547</ele>
        <time>2012-02-17T16:32:18Z</time>
      </trkpt>
      <trkpt lat="59.987086" lon="17.7334385">
        <ele>43.8773</ele>
        <time>2012-02-17T16:32:25Z</time>
      </trkpt>
      <trkpt lat="59.9870508" lon="17.733606">
        <ele>43.3966</ele>
        <time>2012-02-17T16:32:31Z</time>
      </trkpt>
      <trkpt lat="59.9870265" lon="17.7336653">
        <ele>43.3966</ele>
        <time>2012-02-17T16:32:33Z</time>
      </trkpt>
      <trkpt lat="59.9869866" lon="17.7338003">
        <ele>43.3966</ele>
        <time>2012-02-17T16:32:38Z</time>
      </trkpt>
      <trkpt lat="59.9868868" lon="17.7339816">
        <ele>46.2806</ele>
        <time>2012-02-17T16:32:44Z</time>
      </trkpt>
      <trkpt lat="59.9868487" lon="17.7341746">
        <ele>48.684</ele>
        <time>2012-02-17T16:32:51Z</time>
      </trkpt>
      <trkpt lat="59.9868272" lon="17.7342735">
        <ele>48.684</ele>
        <time>2012-02-17T16:32:55Z</time>
      </trkpt>
      <trkpt lat="59.9868149" lon="17.7344447">
        <ele>49.6453</ele>
        <time>2012-02-17T16:33:01Z</time>
      </trkpt>
      <trkpt lat="59.9867726" lon="17.7346441">
        <ele>50.126</ele>
        <time>2012-02-17T16:33:08Z</time>
      </trkpt>
      <trkpt lat="59.986745" lon="17.7348015">
        <ele>50.6066</ele>
        <time>2012-02-17T16:33:14Z</time>
      </trkpt>
      <trkpt lat="59.9867097" lon="17.7349692">
        <ele>50.6066</ele>
        <time>2012-02-17T16:33:20Z</time>
      </trkpt>
      <trkpt lat="59.9866791" lon="17.7351955">
        <ele>51.5679</ele>
        <time>2012-02-17T16:33:27Z</time>
      </trkpt>
      <trkpt lat="59.9866585" lon="17.7353646">
        <ele>53.0098</ele>
        <time>2012-02-17T16:33:32Z</time>
      </trkpt>
      <trkpt lat="59.9866061" lon="17.7355941">
        <ele>53.0098</ele>
        <time>2012-02-17T16:33:39Z</time>
      </trkpt>
      <trkpt lat="59.9865949" lon="17.7356329">
        <ele>52.5292</ele>
        <time>2012-02-17T16:33:40Z</time>
      </trkpt>
      <trkpt lat="59.9865726" lon="17.7357623">
        <ele>51.0872</ele>
        <time>2012-02-17T16:33:44Z</time>
      </trkpt>
      <trkpt lat="59.9865415" lon="17.735851">
        <ele>50.6066</ele>
        <time>2012-02-17T16:33:48Z</time>
      </trkpt>
      <trkpt lat="59.986527" lon="17.7359951">
        <ele>51.5679</ele>
        <time>2012-02-17T16:33:54Z</time>
      </trkpt>
      <trkpt lat="59.9865021" lon="17.7361207">
        <ele>52.0486</ele>
        <time>2012-02-17T16:33:59Z</time>
      </trkpt>
      <trkpt lat="59.9864238" lon="17.736229">
        <ele>50.6066</ele>
        <time>2012-02-17T16:34:04Z</time>
      </trkpt>
      <trkpt lat="59.9864131" lon="17.7362431">
        <ele>50.6066</ele>
        <time>2012-02-17T16:34:05Z</time>
      </trkpt>
      <trkpt lat="59.9863301" lon="17.7363638">
        <ele>49.1646</ele>
        <time>2012-02-17T16:34:10Z</time>
      </trkpt>
      <trkpt lat="59.9863135" lon="17.7364063">
        <ele>49.6453</ele>
        <time>2012-02-17T16:34:12Z</time>
      </trkpt>
      <trkpt lat="59.9862452" lon="17.7364736">
        <ele>52.5292</ele>
        <time>2012-02-17T16:34:17Z</time>
      </trkpt>
      <trkpt lat="59.9862005" lon="17.7365514">
        <ele>53.0098</ele>
        <time>2012-02-17T16:34:20Z</time>
      </trkpt>
      <trkpt lat="59.9861188" lon="17.7366865">
        <ele>53.4905</ele>
        <time>2012-02-17T16:34:24Z</time>
      </trkpt>
      <trkpt lat="59.9860653" lon="17.7367413">
        <ele>53.0098</ele>
        <time>2012-02-17T16:34:30Z</time>
      </trkpt>
      <trkpt lat="59.9860375" lon="17.7367865">
        <ele>53.0098</ele>
        <time>2012-02-17T16:34:32Z</time>
      </trkpt>
      <trkpt lat="59.9859899" lon="17.7368445">
        <ele>53.4905</ele>
        <time>2012-02-17T16:34:37Z</time>
      </trkpt>
      <trkpt lat="59.9859293" lon="17.7369295">
        <ele>53.0098</ele>
        <time>2012-02-17T16:34:42Z</time>
      </trkpt>
      <trkpt lat="59.9858637" lon="17.7370158">
        <ele>53.9712</ele>
        <time>2012-02-17T16:34:46Z</time>
      </trkpt>
      <trkpt lat="59.9858405" lon="17.7370772">
        <ele>52.5292</ele>
        <time>2012-02-17T16:34:49Z</time>
      </trkpt>
      <trkpt lat="59.9857816" lon="17.7371631">
        <ele>51.5679</ele>
        <time>2012-02-17T16:34:54Z</time>
      </trkpt>
      <trkpt lat="59.9857353" lon="17.737234">
        <ele>53.4905</ele>
        <time>2012-02-17T16:34:57Z</time>
      </trkpt>
      <trkpt lat="59.9856729" lon="17.7373388">
        <ele>57.3358</ele>
        <time>2012-02-17T16:35:01Z</time>
      </trkpt>
      <trkpt lat="59.985606" lon="17.7374256">
        <ele>58.7777</ele>
        <time>2012-02-17T16:35:06Z</time>
      </trkpt>
      <trkpt lat="59.9855944" lon="17.7374378">
        <ele>58.7777</ele>
        <time>2012-02-17T16:35:07Z</time>
      </trkpt>
      <trkpt lat="59.9855457" lon="17.7376143">
        <ele>57.8165</ele>
        <time>2012-02-17T16:35:14Z</time>
      </trkpt>
      <trkpt lat="59.9855247" lon="17.737745">
        <ele>56.3745</ele>
        <time>2012-02-17T16:35:18Z</time>
      </trkpt>
      <trkpt lat="59.9855226" lon="17.7379588">
        <ele>55.4131</ele>
        <time>2012-02-17T16:35:25Z</time>
      </trkpt>
      <trkpt lat="59.9855195" lon="17.7381269">
        <ele>56.3745</ele>
        <time>2012-02-17T16:35:32Z</time>
      </trkpt>
      <trkpt lat="59.9854169" lon="17.7382727">
        <ele>56.8551</ele>
        <time>2012-02-17T16:35:39Z</time>
      </trkpt>
      <trkpt lat="59.9853448" lon="17.738339">
        <ele>55.8938</ele>
        <time>2012-02-17T16:35:43Z</time>
      </trkpt>
      <trkpt lat="59.9852795" lon="17.7383331">
        <ele>54.4518</ele>
        <time>2012-02-17T16:35:48Z</time>
      </trkpt>
      <trkpt lat="59.9852408" lon="17.7383143">
        <ele>54.9324</ele>
        <time>2012-02-17T16:35:51Z</time>
      </trkpt>
      <trkpt lat="59.9851381" lon="17.7383365">
        <ele>57.8165</ele>
        <time>2012-02-17T16:35:56Z</time>
      </trkpt>
      <trkpt lat="59.9851278" lon="17.738309">
        <ele>58.7777</ele>
        <time>2012-02-17T16:35:57Z</time>
      </trkpt>
      <trkpt lat="59.985034" lon="17.7382188">
        <ele>63.5844</ele>
        <time>2012-02-17T16:36:04Z</time>
      </trkpt>
      <trkpt lat="59.9849419" lon="17.7382265">
        <ele>65.5071</ele>
        <time>2012-02-17T16:36:08Z</time>
      </trkpt>
      <trkpt lat="59.9848507" lon="17.7382645">
        <ele>67.4297</ele>
        <time>2012-02-17T16:36:12Z</time>
      </trkpt>
      <trkpt lat="59.9848082" lon="17.7382652">
        <ele>65.0264</ele>
        <time>2012-02-17T16:36:17Z</time>
      </trkpt>
      <trkpt lat="59.9847678" lon="17.7382432">
        <ele>64.5457</ele>
        <time>2012-02-17T16:36:20Z</time>
      </trkpt>
      <trkpt lat="59.9847026" lon="17.7382221">
        <ele>65.5071</ele>
        <time>2012-02-17T16:36:24Z</time>
      </trkpt>
      <trkpt lat="59.984668" lon="17.738149">
        <ele>66.949</ele>
        <time>2012-02-17T16:36:28Z</time>
      </trkpt>
      <trkpt lat="59.9845931" lon="17.7381147">
        <ele>67.4297</ele>
        <time>2012-02-17T16:36:33Z</time>
      </trkpt>
      <trkpt lat="59.984564" lon="17.7381055">
        <ele>68.3909</ele>
        <time>2012-02-17T16:36:35Z</time>
      </trkpt>
      <trkpt lat="59.9845034" lon="17.7380857">
        <ele>67.9103</ele>
        <time>2012-02-17T16:36:39Z</time>
      </trkpt>
      <trkpt lat="59.9843919" lon="17.7380858">
        <ele>67.9103</ele>
        <time>2012-02-17T16:36:45Z</time>
      </trkpt>
      <trkpt lat="59.9843745" lon="17.7380888">
        <ele>67.9103</ele>
        <time>2012-02-17T16:36:46Z</time>
      </trkpt>
      <trkpt lat="59.9842909" lon="17.7380671">
        <ele>70.3135</ele>
        <time>2012-02-17T16:36:52Z</time>
      </trkpt>
      <trkpt lat="59.9842014" lon="17.7380839">
        <ele>69.8329</ele>
        <time>2012-02-17T16:36:57Z</time>
      </trkpt>
      <trkpt lat="59.9841022" lon="17.7381032">
        <ele>69.3523</ele>
        <time>2012-02-17T16:37:03Z</time>
      </trkpt>
      <trkpt lat="59.9840249" lon="17.7381216">
        <ele>67.4297</ele>
        <time>2012-02-17T16:37:08Z</time>
      </trkpt>
      <trkpt lat="59.983958" lon="17.73813">
        <ele>67.4297</ele>
        <time>2012-02-17T16:37:12Z</time>
      </trkpt>
      <trkpt lat="59.9839059" lon="17.7381433">
        <ele>67.4297</ele>
        <time>2012-02-17T16:37:15Z</time>
      </trkpt>
      <trkpt lat="59.983843" lon="17.7381608">
        <ele>66.4683</ele>
        <time>2012-02-17T16:37:20Z</time>
      </trkpt>
      <trkpt lat="59.9838055" lon="17.7381401">
        <ele>65.5071</ele>
        <time>2012-02-17T16:37:23Z</time>
      </trkpt>
      <trkpt lat="59.9837204" lon="17.7381598">
        <ele>63.5844</ele>
        <time>2012-02-17T16:37:28Z</time>
      </trkpt>
      <trkpt lat="59.983638" lon="17.7381567">
        <ele>62.6229</ele>
        <time>2012-02-17T16:37:34Z</time>
      </trkpt>
      <trkpt lat="59.9835392" lon="17.7381924">
        <ele>60.2197</ele>
        <time>2012-02-17T16:37:40Z</time>
      </trkpt>
      <trkpt lat="59.9834707" lon="17.7382068">
        <ele>57.3358</ele>
        <time>2012-02-17T16:37:45Z</time>
      </trkpt>
      <trkpt lat="59.9833986" lon="17.7381974">
        <ele>52.5292</ele>
        <time>2012-02-17T16:37:52Z</time>
      </trkpt>
      <trkpt lat="59.983322" lon="17.7382531">
        <ele>52.5292</ele>
        <time>2012-02-17T16:37:57Z</time>
      </trkpt>
      <trkpt lat="59.983255" lon="17.7382493">
        <ele>53.4905</ele>
        <time>2012-02-17T16:38:02Z</time>
      </trkpt>
      <trkpt lat="59.9831911" lon="17.7382319">
        <ele>51.5679</ele>
        <time>2012-02-17T16:38:08Z</time>
      </trkpt>
      <trkpt lat="59.9831572" lon="17.7382221">
        <ele>49.6453</ele>
        <time>2012-02-17T16:38:11Z</time>
      </trkpt>
      <trkpt lat="59.9830932" lon="17.7382168">
        <ele>49.6453</ele>
        <time>2012-02-17T16:38:16Z</time>
      </trkpt>
      <trkpt lat="59.9830553" lon="17.7381887">
        <ele>51.5679</ele>
        <time>2012-02-17T16:38:19Z</time>
      </trkpt>
      <trkpt lat="59.9830048" lon="17.7382257">
        <ele>53.4905</ele>
        <time>2012-02-17T16:38:23Z</time>
      </trkpt>
      <trkpt lat="59.9829263" lon="17.7382436">
        <ele>56.8551</ele>
        <time>2012-02-17T16:38:27Z</time>
      </trkpt>
      <trkpt lat="59.9828838" lon="17.738199">
        <ele>61.181</ele>
        <time>2012-02-17T16:38:30Z</time>
      </trkpt>
      <trkpt lat="59.9828056" lon="17.7381713">
        <ele>63.5844</ele>
        <time>2012-02-17T16:38:34Z</time>
      </trkpt>
      <trkpt lat="59.9827549" lon="17.7381966">
        <ele>64.0651</ele>
        <time>2012-02-17T16:38:36Z</time>
      </trkpt>
      <trkpt lat="59.9826761" lon="17.7381991">
        <ele>64.0651</ele>
        <time>2012-02-17T16:38:41Z</time>
      </trkpt>
      <trkpt lat="59.9826578" lon="17.7382078">
        <ele>63.5844</ele>
        <time>2012-02-17T16:38:42Z</time>
      </trkpt>
      <trkpt lat="59.9825736" lon="17.7381835">
        <ele>63.5844</ele>
        <time>2012-02-17T16:38:48Z</time>
      </trkpt>
      <trkpt lat="59.9824968" lon="17.7381775">
        <ele>61.181</ele>
        <time>2012-02-17T16:38:54Z</time>
      </trkpt>
      <trkpt lat="59.9824513" lon="17.7381791">
        <ele>61.6617</ele>
        <time>2012-02-17T16:38:57Z</time>
      </trkpt>
      <trkpt lat="59.9823498" lon="17.7381982">
        <ele>61.6617</ele>
        <time>2012-02-17T16:39:04Z</time>
      </trkpt>
      <trkpt lat="59.9822281" lon="17.7382551">
        <ele>63.1036</ele>
        <time>2012-02-17T16:39:11Z</time>
      </trkpt>
      <trkpt lat="59.9821426" lon="17.7382752">
        <ele>62.1423</ele>
        <time>2012-02-17T16:39:18Z</time>
      </trkpt>
      <trkpt lat="59.9820436" lon="17.7383287">
        <ele>62.1423</ele>
        <time>2012-02-17T16:39:24Z</time>
      </trkpt>
      <trkpt lat="59.9820307" lon="17.7383375">
        <ele>62.6229</ele>
        <time>2012-02-17T16:39:25Z</time>
      </trkpt>
      <trkpt lat="59.9819866" lon="17.7383158">
        <ele>61.6617</ele>
        <time>2012-02-17T16:39:29Z</time>
      </trkpt>
      <trkpt lat="59.9818871" lon="17.7384156">
        <ele>64.0651</ele>
        <time>2012-02-17T16:39:34Z</time>
      </trkpt>
      <trkpt lat="59.9818034" lon="17.7384249">
        <ele>63.5844</ele>
        <time>2012-02-17T16:39:41Z</time>
      </trkpt>
      <trkpt lat="59.981757" lon="17.7384438">
        <ele>60.2197</ele>
        <time>2012-02-17T16:39:46Z</time>
      </trkpt>
      <trkpt lat="59.9816656" lon="17.7385105">
        <ele>57.3358</ele>
        <time>2012-02-17T16:39:53Z</time>
      </trkpt>
      <trkpt lat="59.9816338" lon="17.7385285">
        <ele>56.3745</ele>
        <time>2012-02-17T16:39:56Z</time>
      </trkpt>
      <trkpt lat="59.9815396" lon="17.738538">
        <ele>54.9324</ele>
        <time>2012-02-17T16:40:03Z</time>
      </trkpt>
      <trkpt lat="59.981439" lon="17.7385874">
        <ele>55.8938</ele>
        <time>2012-02-17T16:40:09Z</time>
      </trkpt>
      <trkpt lat="59.9813592" lon="17.7386251">
        <ele>56.8551</ele>
        <time>2012-02-17T16:40:14Z</time>
      </trkpt>
      <trkpt lat="59.9812464" lon="17.7386489">
        <ele>60.2197</ele>
        <time>2012-02-17T16:40:20Z</time>
      </trkpt>
      <trkpt lat="59.9811685" lon="17.7386545">
        <ele>62.6229</ele>
        <time>2012-02-17T16:40:25Z</time>
      </trkpt>
      <trkpt lat="59.9810968" lon="17.7386736">
        <ele>60.2197</ele>
        <time>2012-02-17T16:40:30Z</time>
      </trkpt>
      <trkpt lat="59.9809708" lon="17.7387416">
        <ele>59.2584</ele>
        <time>2012-02-17T16:40:37Z</time>
      </trkpt>
      <trkpt lat="59.9808946" lon="17.7387456">
        <ele>57.8165</ele>
        <time>2012-02-17T16:40:43Z</time>
      </trkpt>
      <trkpt lat="59.9808408" lon="17.7387357">
        <ele>58.2971</ele>
        <time>2012-02-17T16:40:47Z</time>
      </trkpt>
      <trkpt lat="59.980762" lon="17.7388063">
        <ele>58.2971</ele>
        <time>2012-02-17T16:40:51Z</time>
      </trkpt>
      <trkpt lat="59.9807137" lon="17.7388147">
        <ele>54.9324</ele>
        <time>2012-02-17T16:40:55Z</time>
      </trkpt>
      <trkpt lat="59.9806429" lon="17.7388468">
        <ele>51.0872</ele>
        <time>2012-02-17T16:40:58Z</time>
      </trkpt>
      <trkpt lat="59.980587" lon="17.7388689">
        <ele>50.126</ele>
        <time>2012-02-17T16:41:02Z</time>
      </trkpt>
      <trkpt lat="59.9804979" lon="17.7388523">
        <ele>49.6453</ele>
        <time>2012-02-17T16:41:08Z</time>
      </trkpt>
      <trkpt lat="59.9803967" lon="17.7388933">
        <ele>49.6453</ele>
        <time>2012-02-17T16:41:15Z</time>
      </trkpt>
      <trkpt lat="59.9803443" lon="17.7388864">
        <ele>47.7225</ele>
        <time>2012-02-17T16:41:20Z</time>
      </trkpt>
      <trkpt lat="59.9802804" lon="17.7389176">
        <ele>46.2806</ele>
        <time>2012-02-17T16:41:25Z</time>
      </trkpt>
      <trkpt lat="59.980231" lon="17.7388798">
        <ele>43.3966</ele>
        <time>2012-02-17T16:41:30Z</time>
      </trkpt>
      <trkpt lat="59.980204" lon="17.7388726">
        <ele>42.916</ele>
        <time>2012-02-17T16:41:32Z</time>
      </trkpt>
      <trkpt lat="59.9800774" lon="17.7388289">
        <ele>40.5128</ele>
        <time>2012-02-17T16:41:42Z</time>
      </trkpt>
      <trkpt lat="59.9799348" lon="17.7388345">
        <ele>43.8773</ele>
        <time>2012-02-17T16:41:52Z</time>
      </trkpt>
      <trkpt lat="59.9798467" lon="17.7388379">
        <ele>42.916</ele>
        <time>2012-02-17T16:41:59Z</time>
      </trkpt>
      <trkpt lat="59.9797373" lon="17.7388601">
        <ele>43.3966</ele>
        <time>2012-02-17T16:42:07Z</time>
      </trkpt>
      <trkpt lat="59.9796409" lon="17.7388947">
        <ele>41.9547</ele>
        <time>2012-02-17T16:42:15Z</time>
      </trkpt>
      <trkpt lat="59.9795955" lon="17.7389145">
        <ele>42.4354</ele>
        <time>2012-02-17T16:42:18Z</time>
      </trkpt>
      <trkpt lat="59.9795362" lon="17.7389549">
        <ele>40.9934</ele>
        <time>2012-02-17T16:42:22Z</time>
      </trkpt>
      <trkpt lat="59.979467" lon="17.7390017">
        <ele>36.6675</ele>
        <time>2012-02-17T16:42:28Z</time>
      </trkpt>
      <trkpt lat="59.9794093" lon="17.7390455">
        <ele>34.2642</ele>
        <time>2012-02-17T16:42:32Z</time>
      </trkpt>
      <trkpt lat="59.9793479" lon="17.7390771">
        <ele>33.7834</ele>
        <time>2012-02-17T16:42:37Z</time>
      </trkpt>
      <trkpt lat="59.9792484" lon="17.7391549">
        <ele>35.7061</ele>
        <time>2012-02-17T16:42:45Z</time>
      </trkpt>
      <trkpt lat="59.9791592" lon="17.7392039">
        <ele>35.2255</ele>
        <time>2012-02-17T16:42:52Z</time>
      </trkpt>
      <trkpt lat="59.9790687" lon="17.7392409">
        <ele>35.2255</ele>
        <time>2012-02-17T16:42:59Z</time>
      </trkpt>
      <trkpt lat="59.9789853" lon="17.7392926">
        <ele>34.2642</ele>
        <time>2012-02-17T16:43:04Z</time>
      </trkpt>
      <trkpt lat="59.9788832" lon="17.739376">
        <ele>34.7449</ele>
        <time>2012-02-17T16:43:12Z</time>
      </trkpt>
      <trkpt lat="59.9788729" lon="17.7394248">
        <ele>34.7449</ele>
        <time>2012-02-17T16:43:17Z</time>
      </trkpt>
      <trkpt lat="59.9789424" lon="17.7394772">
        <ele>33.7834</ele>
        <time>2012-02-17T16:43:22Z</time>
      </trkpt>
      <trkpt lat="59.9790065" lon="17.7395934">
        <ele>34.2642</ele>
        <time>2012-02-17T16:43:28Z</time>
      </trkpt>
      <trkpt lat="59.9789931" lon="17.7396479">
        <ele>34.2642</ele>
        <time>2012-02-17T16:43:30Z</time>
      </trkpt>
      <trkpt lat="59.9789825" lon="17.7398284">
        <ele>35.2255</ele>
        <time>2012-02-17T16:43:36Z</time>
      </trkpt>
      <trkpt lat="59.9789779" lon="17.7398515">
        <ele>34.7449</ele>
        <time>2012-02-17T16:43:37Z</time>
      </trkpt>
    </trkseg>
  </trk>
</gpx>